createdAt,value
2023-12-24T00:00:59.749Z,9.88
2023-12-24T00:03:04.567Z,9.88
2023-12-24T00:05:10.049Z,9.89
2023-12-24T00:07:14.750Z,9.90
2023-12-24T00:09:25.065Z,9.88
2023-12-24T00:11:29.841Z,9.87
2023-12-24T00:13:34.628Z,9.87
2023-12-24T00:15:39.474Z,9.84
2023-12-24T00:17:46.389Z,9.84
2023-12-24T00:19:51.171Z,9.86
2023-12-24T00:21:55.904Z,9.84
2023-12-24T00:24:00.579Z,9.86
2023-12-24T00:26:05.351Z,9.89
2023-12-24T00:28:10.016Z,9.93
2023-12-24T00:30:15.935Z,9.95
2023-12-24T00:32:20.645Z,9.94
2023-12-24T00:34:25.399Z,9.95
2023-12-24T00:36:30.105Z,9.96
2023-12-24T00:38:34.820Z,9.93
2023-12-24T00:40:39.556Z,9.93
2023-12-24T00:42:44.224Z,9.94
2023-12-24T00:44:48.876Z,9.93
2023-12-24T00:46:54.327Z,9.96
2023-12-24T00:48:59.086Z,9.99
2023-12-24T00:51:04.198Z,10.01
2023-12-24T00:53:08.917Z,10.01
2023-12-24T00:55:13.619Z,10.04
2023-12-24T00:57:18.283Z,10.07
2023-12-24T00:59:22.990Z,10.05
2023-12-24T01:01:27.774Z,10.04
2023-12-24T01:03:32.573Z,10.03
2023-12-24T01:05:38.329Z,10.03
2023-12-24T01:07:43.109Z,10.02
2023-12-24T01:09:47.881Z,10.00
2023-12-24T01:11:53.129Z,9.98
2023-12-24T01:13:57.803Z,9.97
2023-12-24T01:16:03.194Z,9.96
2023-12-24T01:18:08.218Z,9.95
2023-12-24T01:20:17.542Z,9.91
2023-12-24T01:22:22.260Z,9.90
2023-12-24T01:24:28.202Z,9.88
2023-12-24T01:26:33.435Z,9.85
2023-12-24T01:28:38.092Z,9.83
2023-12-24T01:30:42.785Z,9.79
2023-12-24T01:32:50.918Z,9.77
2023-12-24T01:34:56.609Z,9.75
2023-12-24T01:37:01.298Z,9.67
2023-12-24T01:39:06.045Z,9.63
2023-12-24T01:41:10.748Z,9.60
2023-12-24T01:43:15.736Z,9.59
2023-12-24T01:45:20.453Z,9.62
2023-12-24T01:47:25.840Z,9.68
2023-12-24T01:49:30.631Z,9.70
2023-12-24T01:51:36.625Z,9.72
2023-12-24T01:53:42.287Z,9.72
2023-12-24T01:55:50.511Z,9.71
2023-12-24T01:57:55.252Z,9.72
2023-12-24T02:00:00.532Z,9.79
2023-12-24T02:02:06.124Z,9.82
2023-12-24T02:04:11.892Z,9.83
2023-12-24T02:06:17.874Z,9.87
2023-12-24T02:08:22.938Z,9.90
2023-12-24T02:10:29.040Z,9.91
2023-12-24T02:12:35.144Z,9.89
2023-12-24T02:14:40.403Z,9.86
2023-12-24T02:16:48.421Z,9.83
2023-12-24T02:18:53.371Z,9.80
2023-12-24T02:21:03.697Z,9.78
2023-12-24T02:23:08.357Z,9.78
2023-12-24T02:25:14.962Z,9.79
2023-12-24T02:27:25.625Z,9.79
2023-12-24T02:29:35.839Z,9.80
2023-12-24T02:31:43.102Z,9.81
2023-12-24T02:33:50.659Z,9.82
2023-12-24T02:35:55.759Z,9.83
2023-12-24T02:38:00.618Z,9.88
2023-12-24T02:40:06.140Z,9.92
2023-12-24T02:42:11.010Z,9.95
2023-12-24T02:44:15.735Z,9.99
2023-12-24T02:46:21.181Z,10.03
2023-12-24T02:48:25.888Z,10.06
2023-12-24T02:50:30.754Z,10.09
2023-12-24T02:52:35.411Z,10.10
2023-12-24T02:54:40.041Z,10.13
2023-12-24T02:56:44.880Z,10.16
2023-12-24T02:58:49.534Z,10.16
2023-12-24T03:00:54.270Z,10.15
2023-12-24T03:02:59.145Z,10.17
2023-12-24T03:05:04.091Z,10.18
2023-12-24T03:07:08.857Z,10.16
2023-12-24T03:09:13.489Z,10.16
2023-12-24T03:11:18.325Z,10.14
2023-12-24T03:13:23.056Z,10.14
2023-12-24T03:15:27.706Z,10.12
2023-12-24T03:17:32.475Z,10.13
2023-12-24T03:19:40.200Z,10.10
2023-12-24T03:21:45.083Z,10.10
2023-12-24T03:23:49.721Z,10.10
2023-12-24T03:25:54.505Z,10.12
2023-12-24T03:27:59.116Z,10.11
2023-12-24T03:30:04.230Z,10.12
2023-12-24T03:32:09.379Z,10.13
2023-12-24T03:34:14.164Z,10.14
2023-12-24T03:36:18.804Z,10.13
2023-12-24T03:38:23.497Z,10.11
2023-12-24T03:40:28.156Z,10.13
2023-12-24T03:42:32.796Z,10.13
2023-12-24T03:44:37.441Z,10.13
2023-12-24T03:46:42.108Z,10.11
2023-12-24T03:48:46.976Z,10.10
2023-12-24T03:50:51.695Z,10.09
2023-12-24T03:52:58.843Z,10.08
2023-12-24T03:55:05.443Z,10.07
2023-12-24T03:57:10.810Z,10.06
2023-12-24T03:59:15.551Z,10.10
2023-12-24T04:01:24.553Z,10.07
2023-12-24T04:03:29.233Z,10.06
2023-12-24T04:05:34.060Z,10.03
2023-12-24T04:07:38.740Z,10.03
2023-12-24T04:09:44.936Z,10.03
2023-12-24T04:11:51.199Z,10.03
2023-12-24T04:13:55.821Z,10.02
2023-12-24T04:16:00.460Z,10.02
2023-12-24T04:18:05.900Z,10.04
2023-12-24T04:20:11.557Z,10.04
2023-12-24T04:22:16.359Z,10.05
2023-12-24T04:24:21.009Z,10.03
2023-12-24T04:26:25.802Z,10.05
2023-12-24T04:28:30.612Z,10.05
2023-12-24T04:30:35.730Z,10.06
2023-12-24T04:32:40.741Z,10.07
2023-12-24T04:34:46.059Z,10.07
2023-12-24T04:36:50.726Z,10.08
2023-12-24T04:38:55.378Z,10.11
2023-12-24T04:41:00.013Z,10.11
2023-12-24T04:43:04.950Z,10.12
2023-12-24T04:45:10.574Z,10.13
2023-12-24T04:47:15.228Z,10.14
2023-12-24T04:49:20.004Z,10.14
2023-12-24T04:51:24.965Z,10.12
2023-12-24T04:53:29.625Z,10.11
2023-12-24T04:55:37.079Z,10.10
2023-12-24T04:57:41.772Z,10.10
2023-12-24T04:59:46.395Z,10.10
2023-12-24T05:01:52.101Z,10.09
2023-12-24T05:03:56.758Z,10.09
2023-12-24T05:06:01.624Z,10.10
2023-12-24T05:08:06.932Z,10.07
2023-12-24T05:10:12.674Z,10.07
2023-12-24T05:12:18.016Z,10.06
2023-12-24T05:14:22.645Z,10.04
2023-12-24T05:16:27.340Z,10.05
2023-12-24T05:18:35.188Z,10.02
2023-12-24T05:20:40.004Z,10.00
2023-12-24T05:22:44.670Z,9.98
2023-12-24T05:24:50.556Z,9.95
2023-12-24T05:26:55.223Z,9.94
2023-12-24T05:28:59.941Z,9.95
2023-12-24T05:31:04.755Z,9.93
2023-12-24T05:33:09.529Z,9.92
2023-12-24T05:35:14.370Z,9.90
2023-12-24T05:37:19.010Z,9.90
2023-12-24T05:39:26.704Z,9.88
2023-12-24T05:41:33.669Z,9.86
2023-12-24T05:43:38.655Z,9.84
2023-12-24T05:45:43.626Z,9.83
2023-12-24T05:47:49.837Z,9.81
2023-12-24T05:49:54.569Z,9.80
2023-12-24T05:51:59.186Z,9.78
2023-12-24T05:54:03.901Z,9.77
2023-12-24T05:56:08.956Z,9.76
2023-12-24T05:58:13.597Z,9.77
2023-12-24T06:00:19.270Z,9.77
2023-12-24T06:02:23.917Z,9.77
2023-12-24T06:04:28.717Z,9.76
2023-12-24T06:06:33.882Z,9.75
2023-12-24T06:08:38.687Z,9.75
2023-12-24T06:10:43.518Z,9.75
2023-12-24T06:12:50.654Z,9.75
2023-12-24T06:14:55.367Z,9.75
2023-12-24T06:17:03.307Z,9.75
2023-12-24T06:19:08.280Z,9.78
2023-12-24T06:21:13.034Z,9.79
2023-12-24T06:23:17.670Z,9.80
2023-12-24T06:25:22.875Z,9.81
2023-12-24T06:27:27.498Z,9.82
2023-12-24T06:29:37.016Z,9.83
2023-12-24T06:31:41.688Z,9.85
2023-12-24T06:33:46.349Z,9.87
2023-12-24T06:35:51.625Z,9.88
2023-12-24T06:37:57.721Z,9.89
2023-12-24T06:40:02.349Z,9.92
2023-12-24T06:42:07.559Z,9.93
2023-12-24T06:44:12.301Z,9.93
2023-12-24T06:46:17.141Z,9.94
2023-12-24T06:48:21.893Z,9.95
2023-12-24T06:50:26.628Z,9.97
2023-12-24T06:52:31.499Z,9.98
2023-12-24T06:54:36.153Z,10.01
2023-12-24T06:56:40.793Z,10.03
2023-12-24T06:58:45.427Z,10.05
2023-12-24T07:00:50.155Z,10.06
2023-12-24T07:02:55.117Z,10.07
2023-12-24T07:05:00.053Z,10.09
2023-12-24T07:07:04.880Z,10.10
2023-12-24T07:09:09.472Z,10.12
2023-12-24T07:11:14.102Z,10.14
2023-12-24T07:13:18.723Z,10.18
2023-12-24T07:15:23.381Z,10.18
2023-12-24T07:17:28.122Z,10.20
2023-12-24T07:19:35.897Z,10.22
2023-12-24T07:21:40.577Z,10.26
2023-12-24T07:23:45.195Z,10.26
2023-12-24T07:25:49.809Z,10.28
2023-12-24T07:27:54.523Z,10.30
2023-12-24T07:29:59.203Z,10.30
2023-12-24T07:32:04.600Z,10.31
2023-12-24T07:34:09.339Z,10.33
2023-12-24T07:36:14.212Z,10.36
2023-12-24T07:38:18.951Z,10.36
2023-12-24T07:40:23.608Z,10.38
2023-12-24T07:42:28.218Z,10.40
2023-12-24T07:44:32.881Z,10.41
2023-12-24T07:46:37.536Z,10.41
2023-12-24T07:48:42.274Z,10.42
2023-12-24T07:50:46.955Z,10.45
2023-12-24T07:52:51.793Z,10.46
2023-12-24T07:54:56.605Z,10.50
2023-12-24T07:57:01.220Z,10.50
2023-12-24T07:59:05.883Z,10.53
2023-12-24T08:01:10.581Z,10.55
2023-12-24T08:03:15.275Z,10.56
2023-12-24T08:05:22.913Z,10.57
2023-12-24T08:07:27.647Z,10.57
2023-12-24T08:09:32.290Z,10.58
2023-12-24T08:11:37.893Z,10.59
2023-12-24T08:13:42.545Z,10.60
2023-12-24T08:15:47.260Z,10.62
2023-12-24T08:17:52.252Z,10.62
2023-12-24T08:19:57.835Z,10.64
2023-12-24T08:22:02.653Z,10.66
2023-12-24T08:24:07.903Z,10.65
2023-12-24T08:26:14.789Z,10.67
2023-12-24T08:28:19.653Z,10.69
2023-12-24T08:30:24.415Z,10.71
2023-12-24T08:32:30.663Z,10.74
2023-12-24T08:34:38.464Z,10.75
2023-12-24T08:36:43.159Z,10.78
2023-12-24T08:38:47.839Z,10.79
2023-12-24T08:40:52.497Z,10.80
2023-12-24T08:42:57.169Z,10.79
2023-12-24T08:45:01.862Z,10.84
2023-12-24T08:47:07.016Z,10.85
2023-12-24T08:49:11.762Z,10.84
2023-12-24T08:51:16.502Z,10.86
2023-12-24T08:53:21.157Z,10.87
2023-12-24T08:55:25.812Z,10.89
2023-12-24T08:57:30.454Z,10.90
2023-12-24T08:59:35.133Z,10.91
2023-12-24T09:01:43.562Z,10.93
2023-12-24T09:03:48.285Z,10.94
2023-12-24T09:05:53.213Z,10.95
2023-12-24T09:07:57.935Z,10.96
2023-12-24T09:10:02.700Z,10.98
2023-12-24T09:12:08.476Z,10.99
2023-12-24T09:14:13.106Z,11.01
2023-12-24T09:16:18.342Z,11.00
2023-12-24T09:18:23.372Z,10.99
2023-12-24T09:20:28.236Z,11.00
2023-12-24T09:22:32.925Z,11.01
2023-12-24T09:24:37.577Z,11.01
2023-12-24T09:26:42.723Z,11.02
2023-12-24T09:28:47.409Z,11.03
2023-12-24T09:30:54.927Z,11.04
2023-12-24T09:32:59.854Z,11.02
2023-12-24T09:35:05.150Z,11.02
2023-12-24T09:37:09.808Z,11.02
2023-12-24T09:39:14.473Z,11.02
2023-12-24T09:41:20.389Z,11.02
2023-12-24T09:43:25.392Z,11.01
2023-12-24T09:45:33.524Z,11.01
2023-12-24T09:47:41.819Z,11.00
2023-12-24T09:49:46.547Z,11.01
2023-12-24T09:51:51.611Z,11.01
2023-12-24T09:53:57.201Z,11.00
2023-12-24T09:56:01.858Z,11.00
2023-12-24T09:58:06.644Z,11.02
2023-12-24T10:00:14.953Z,11.03
2023-12-24T10:02:19.756Z,11.06
2023-12-24T10:04:24.722Z,11.08
2023-12-24T10:06:29.483Z,11.09
2023-12-24T10:08:34.791Z,11.10
2023-12-24T10:10:39.408Z,11.10
2023-12-24T10:12:44.093Z,11.09
2023-12-24T10:14:56.873Z,11.09
2023-12-24T10:17:01.677Z,11.08
2023-12-24T10:19:06.415Z,11.08
2023-12-24T10:21:12.030Z,11.09
2023-12-24T10:23:19.854Z,11.09
2023-12-24T10:25:24.535Z,11.10
2023-12-24T10:27:29.357Z,11.14
2023-12-24T10:29:34.917Z,11.16
2023-12-24T10:31:50.368Z,11.18
2023-12-24T10:34:00.182Z,11.19
2023-12-24T10:36:07.490Z,11.21
2023-12-24T10:38:16.822Z,11.23
2023-12-24T10:40:24.567Z,11.27
2023-12-24T10:42:29.255Z,11.26
2023-12-24T10:44:34.035Z,11.30
2023-12-24T10:46:41.297Z,11.31
2023-12-24T10:48:46.057Z,11.32
2023-12-24T10:50:51.635Z,11.32
2023-12-24T10:52:57.391Z,11.33
2023-12-24T10:55:06.370Z,11.34
2023-12-24T10:57:35.469Z,11.35
2023-12-24T11:00:04.092Z,11.39
2023-12-24T11:02:12.928Z,11.40
2023-12-24T11:04:43.491Z,11.41
2023-12-24T11:06:48.414Z,11.41
2023-12-24T11:08:53.097Z,11.43
2023-12-24T11:10:58.373Z,11.44
2023-12-24T11:13:09.165Z,11.45
2023-12-24T11:15:43.015Z,11.46
2023-12-24T11:17:53.702Z,11.48
2023-12-24T11:20:18.458Z,11.49
2023-12-24T11:22:23.125Z,11.50
2023-12-24T11:24:28.900Z,11.55
2023-12-24T11:26:35.187Z,11.57
2023-12-24T11:28:39.973Z,11.57
2023-12-24T11:31:05.775Z,11.55
2023-12-24T11:33:44.058Z,11.56
2023-12-24T11:35:55.972Z,11.56
2023-12-24T11:38:20.815Z,11.55
2023-12-24T11:40:25.610Z,11.52
2023-12-24T11:42:43.326Z,11.51
2023-12-24T11:44:47.959Z,11.49
2023-12-24T11:46:52.606Z,11.48
2023-12-24T11:49:02.658Z,11.50
2023-12-24T11:51:08.996Z,11.50
2023-12-24T11:53:19.231Z,11.50
2023-12-24T11:55:27.061Z,11.50
2023-12-24T11:57:31.769Z,11.49
2023-12-24T11:59:39.004Z,11.47
2023-12-24T12:01:43.719Z,11.47
2023-12-24T12:03:48.500Z,11.46
2023-12-24T12:05:53.480Z,11.44
2023-12-24T12:07:58.382Z,11.42
2023-12-24T12:10:03.086Z,11.40
2023-12-24T12:12:10.890Z,11.36
2023-12-24T12:14:16.510Z,11.34
2023-12-24T12:16:21.157Z,11.32
2023-12-24T12:18:25.908Z,11.29
2023-12-24T12:20:30.650Z,11.24
2023-12-24T12:22:36.380Z,11.22
2023-12-24T12:24:41.766Z,11.19
2023-12-24T12:26:46.481Z,11.18
2023-12-24T12:28:51.206Z,11.18
2023-12-24T12:30:55.933Z,11.17
2023-12-24T12:33:03.019Z,11.17
2023-12-24T12:35:08.440Z,11.15
2023-12-24T12:37:16.287Z,11.12
2023-12-24T12:39:20.979Z,11.09
2023-12-24T12:41:25.675Z,11.08
2023-12-24T12:43:33.645Z,11.04
2023-12-24T12:45:38.378Z,11.02
2023-12-24T12:47:46.075Z,11.03
2023-12-24T12:49:50.894Z,11.02
2023-12-24T12:51:55.723Z,11.02
2023-12-24T12:54:07.636Z,11.02
2023-12-24T12:56:12.283Z,11.01
2023-12-24T12:58:18.348Z,10.97
2023-12-24T13:00:24.077Z,10.98
2023-12-24T13:02:28.959Z,11.00
2023-12-24T13:04:34.637Z,11.00
2023-12-24T13:06:51.133Z,11.01
2023-12-24T13:09:05.771Z,11.02
2023-12-24T13:11:10.589Z,11.04
2023-12-24T13:13:20.730Z,11.05
2023-12-24T13:15:28.259Z,11.02
2023-12-24T13:17:33.020Z,11.00
2023-12-24T13:19:38.294Z,10.94
2023-12-24T13:21:42.972Z,10.87
2023-12-24T13:23:47.755Z,10.83
2023-12-24T13:25:53.401Z,10.79
2023-12-24T13:27:58.386Z,10.77
2023-12-24T13:30:03.176Z,10.76
2023-12-24T13:32:09.147Z,10.77
2023-12-24T13:34:13.823Z,10.77
2023-12-24T13:36:18.557Z,10.78
2023-12-24T13:38:23.663Z,10.78
2023-12-24T13:40:28.612Z,10.78
2023-12-24T13:42:33.289Z,10.78
2023-12-24T13:44:39.152Z,10.80
2023-12-24T13:46:44.132Z,10.80
2023-12-24T13:48:51.956Z,10.79
2023-12-24T13:50:56.751Z,10.77
2023-12-24T13:53:14.375Z,10.76
2023-12-24T13:55:27.446Z,10.74
2023-12-24T13:57:32.120Z,10.76
2023-12-24T13:59:36.767Z,10.73
2023-12-24T14:01:42.120Z,10.73
2023-12-24T14:03:46.986Z,10.72
2023-12-24T14:05:52.138Z,10.73
2023-12-24T14:07:57.117Z,10.72
2023-12-24T14:10:01.787Z,10.74
2023-12-24T14:12:07.620Z,10.72
2023-12-24T14:14:12.331Z,10.71
2023-12-24T14:16:17.052Z,10.71
2023-12-24T14:18:21.892Z,10.70
2023-12-24T14:20:27.713Z,10.69
2023-12-24T14:22:32.452Z,10.68
2023-12-24T14:24:37.149Z,10.69
2023-12-24T14:26:41.862Z,10.66
2023-12-24T14:28:46.595Z,10.66
2023-12-24T14:30:51.473Z,10.65
2023-12-24T14:32:56.690Z,10.65
2023-12-24T14:35:01.607Z,10.63
2023-12-24T14:37:06.657Z,10.65
2023-12-24T14:39:11.408Z,10.62
2023-12-24T14:41:16.060Z,10.60
2023-12-24T14:43:20.755Z,10.59
2023-12-24T14:45:25.399Z,10.58
2023-12-24T14:47:31.312Z,10.57
2023-12-24T14:49:36.325Z,10.56
2023-12-24T14:51:41.165Z,10.55
2023-12-24T14:53:48.321Z,10.54
2023-12-24T14:55:55.903Z,10.53
2023-12-24T14:58:00.548Z,10.53
2023-12-24T15:00:07.165Z,10.55
2023-12-24T15:02:11.951Z,10.55
2023-12-24T15:04:17.035Z,10.55
2023-12-24T15:06:21.952Z,10.55
2023-12-24T15:08:26.723Z,10.55
2023-12-24T15:10:31.421Z,10.57
2023-12-24T15:12:36.210Z,10.59
2023-12-24T15:14:40.960Z,10.60
2023-12-24T15:16:48.337Z,10.62
2023-12-24T15:18:53.173Z,10.64
2023-12-24T15:20:58.574Z,10.67
2023-12-24T15:23:04.239Z,10.70
2023-12-24T15:25:09.816Z,10.71
2023-12-24T15:27:15.525Z,10.73
2023-12-24T15:29:20.200Z,10.73
2023-12-24T15:31:27.636Z,10.73
2023-12-24T15:33:34.473Z,10.74
2023-12-24T15:35:40.872Z,10.75
2023-12-24T15:37:45.522Z,10.75
2023-12-24T15:39:50.171Z,10.74
2023-12-24T15:41:55.004Z,10.74
2023-12-24T15:43:59.715Z,10.76
2023-12-24T15:46:04.836Z,10.77
2023-12-24T15:48:10.104Z,10.78
2023-12-24T15:50:16.000Z,10.80
2023-12-24T15:52:24.373Z,10.80
2023-12-24T15:54:32.107Z,10.82
2023-12-24T15:56:36.771Z,10.82
2023-12-24T15:58:41.449Z,10.86
2023-12-24T16:00:46.083Z,10.88
2023-12-24T16:02:50.914Z,10.90
2023-12-24T16:04:57.400Z,10.95
2023-12-24T16:07:02.053Z,10.98
2023-12-24T16:09:06.716Z,11.01
2023-12-24T16:11:11.444Z,11.05
2023-12-24T16:13:16.168Z,11.08
2023-12-24T16:15:20.882Z,11.12
2023-12-24T16:17:25.751Z,11.15
2023-12-24T16:19:31.829Z,11.20
2023-12-24T16:21:38.447Z,11.21
2023-12-24T16:23:43.126Z,11.22
2023-12-24T16:25:47.846Z,11.23
2023-12-24T16:27:52.485Z,11.20
2023-12-24T16:29:57.149Z,11.15
2023-12-24T16:32:02.791Z,11.11
2023-12-24T16:34:07.493Z,11.07
2023-12-24T16:36:12.311Z,11.04
2023-12-24T16:38:16.980Z,11.02
2023-12-24T16:40:21.740Z,11.01
2023-12-24T16:42:26.684Z,11.02
2023-12-24T16:44:39.433Z,11.03
2023-12-24T16:46:44.122Z,11.05
2023-12-24T16:48:49.032Z,11.07
2023-12-24T16:50:53.845Z,11.09
2023-12-24T16:52:58.672Z,11.12
2023-12-24T16:55:03.998Z,11.15
2023-12-24T16:57:08.625Z,11.18
2023-12-24T16:59:13.323Z,11.19
2023-12-24T17:01:18.078Z,11.21
2023-12-24T17:03:22.780Z,11.23
2023-12-24T17:05:27.466Z,11.26
2023-12-24T17:07:32.253Z,11.29
2023-12-24T17:09:37.627Z,11.31
2023-12-24T17:11:42.324Z,11.34
2023-12-24T17:13:47.975Z,11.35
2023-12-24T17:15:52.631Z,11.37
2023-12-24T17:17:58.339Z,11.38
2023-12-24T17:20:03.063Z,11.38
2023-12-24T17:22:07.730Z,11.39
2023-12-24T17:24:12.358Z,11.41
2023-12-24T17:26:19.329Z,11.42
2023-12-24T17:28:24.301Z,11.41
2023-12-24T17:30:28.924Z,11.42
2023-12-24T17:32:33.804Z,11.42
2023-12-24T17:34:38.777Z,11.38
2023-12-24T17:36:43.534Z,11.34
2023-12-24T17:38:48.513Z,11.30
2023-12-24T17:40:53.175Z,11.27
2023-12-24T17:42:57.843Z,11.25
2023-12-24T17:45:03.031Z,11.22
2023-12-24T17:47:07.785Z,11.19
2023-12-24T17:49:12.587Z,11.18
2023-12-24T17:51:17.442Z,11.18
2023-12-24T17:53:22.114Z,11.18
2023-12-24T17:55:26.835Z,11.21
2023-12-24T17:57:31.791Z,11.23
2023-12-24T17:59:36.541Z,11.30
2023-12-24T18:01:41.182Z,11.34
2023-12-24T18:03:45.855Z,11.40
2023-12-24T18:05:50.657Z,11.45
2023-12-24T18:07:55.442Z,11.54
2023-12-24T18:10:00.070Z,11.60
2023-12-24T18:12:05.144Z,11.67
2023-12-24T18:14:09.901Z,11.71
2023-12-24T18:16:14.564Z,11.74
2023-12-24T18:18:19.522Z,11.78
2023-12-24T18:20:25.791Z,11.82
2023-12-24T18:22:30.494Z,11.86
2023-12-24T18:24:35.248Z,11.91
2023-12-24T18:26:40.677Z,11.94
2023-12-24T18:28:45.409Z,11.97
2023-12-24T18:30:50.047Z,12.01
2023-12-24T18:32:55.188Z,12.04
2023-12-24T18:35:00.127Z,12.06
2023-12-24T18:37:04.966Z,12.09
2023-12-24T18:39:09.701Z,12.15
2023-12-24T18:41:21.477Z,12.17
2023-12-24T18:43:26.140Z,12.19
2023-12-24T18:45:30.833Z,12.21
2023-12-24T18:47:35.534Z,12.22
2023-12-24T18:49:42.769Z,12.24
2023-12-24T18:51:47.439Z,12.27
2023-12-24T18:53:52.512Z,12.27
2023-12-24T18:55:57.157Z,12.31
2023-12-24T18:58:01.878Z,12.31
2023-12-24T19:00:08.796Z,12.33
2023-12-24T19:02:13.525Z,12.34
2023-12-24T19:04:18.436Z,12.37
2023-12-24T19:06:24.560Z,12.38
2023-12-24T19:08:29.272Z,12.39
2023-12-24T19:10:34.067Z,12.42
2023-12-24T19:12:38.788Z,12.44
2023-12-24T19:14:43.551Z,12.47
2023-12-24T19:16:48.303Z,12.49
2023-12-24T19:18:53.117Z,12.52
2023-12-24T19:20:57.905Z,12.55
2023-12-24T19:23:02.637Z,12.61
2023-12-24T19:25:08.218Z,12.64
2023-12-24T19:27:12.829Z,12.66
2023-12-24T19:29:17.617Z,12.69
2023-12-24T19:31:22.359Z,12.72
2023-12-24T19:33:27.176Z,12.74
2023-12-24T19:35:31.920Z,12.77
2023-12-24T19:37:37.038Z,12.79
2023-12-24T19:39:41.686Z,12.82
2023-12-24T19:41:46.442Z,12.82
2023-12-24T19:43:51.128Z,12.83
2023-12-24T19:45:55.804Z,12.80
2023-12-24T19:48:00.924Z,12.77
2023-12-24T19:50:06.246Z,12.74
2023-12-24T19:52:11.150Z,12.72
2023-12-24T19:54:17.646Z,12.69
2023-12-24T19:56:22.398Z,12.65
2023-12-24T19:58:27.145Z,12.60
2023-12-24T20:00:31.791Z,12.55
2023-12-24T20:02:36.674Z,12.50
2023-12-24T20:04:42.257Z,12.48
2023-12-24T20:06:48.031Z,12.46
2023-12-24T20:08:52.756Z,12.42
2023-12-24T20:10:57.482Z,12.39
2023-12-24T20:13:02.167Z,12.38
2023-12-24T20:15:08.084Z,12.36
2023-12-24T20:17:12.796Z,12.34
2023-12-24T20:19:17.617Z,12.35
2023-12-24T20:21:24.815Z,12.35
2023-12-24T20:23:29.516Z,12.35
2023-12-24T20:25:34.222Z,12.34
2023-12-24T20:27:38.901Z,12.32
2023-12-24T20:29:43.602Z,12.32
2023-12-24T20:31:48.395Z,12.31
2023-12-24T20:33:53.158Z,12.30
2023-12-24T20:35:57.953Z,12.28
2023-12-24T20:38:02.753Z,12.25
2023-12-24T20:40:09.779Z,12.21
2023-12-24T20:42:14.678Z,12.16
2023-12-24T20:44:19.411Z,12.13
2023-12-24T20:46:24.038Z,12.12
2023-12-24T20:48:28.901Z,12.11
2023-12-24T20:50:33.734Z,12.11
2023-12-24T20:52:38.375Z,12.13
2023-12-24T20:54:43.006Z,12.15
2023-12-24T20:56:49.697Z,12.18
2023-12-24T20:58:54.833Z,12.21
2023-12-24T21:00:59.558Z,12.24
2023-12-24T21:03:04.560Z,12.27
2023-12-24T21:05:10.598Z,12.30
2023-12-24T21:07:15.258Z,12.34
2023-12-24T21:09:19.899Z,12.38
2023-12-24T21:11:24.584Z,12.44
2023-12-24T21:13:29.425Z,12.50
2023-12-24T21:15:34.076Z,12.55
2023-12-24T21:17:38.830Z,12.61
2023-12-24T21:19:43.729Z,12.64
2023-12-24T21:21:50.079Z,12.68
2023-12-24T21:23:56.581Z,12.72
2023-12-24T21:26:01.274Z,12.74
2023-12-24T21:28:06.290Z,12.78
2023-12-24T21:30:13.304Z,12.78
2023-12-24T21:32:18.042Z,12.81
2023-12-24T21:34:22.798Z,12.84
2023-12-24T21:36:27.505Z,12.87
2023-12-24T21:38:32.249Z,12.90
2023-12-24T21:40:36.903Z,12.93
2023-12-24T21:42:41.606Z,12.96
2023-12-24T21:44:46.355Z,12.99
2023-12-24T21:46:51.059Z,13.01
2023-12-24T21:48:55.770Z,13.03
2023-12-24T21:51:00.560Z,13.03
2023-12-24T21:53:05.590Z,13.03
2023-12-24T21:55:10.660Z,13.04
2023-12-24T21:57:15.265Z,13.04
2023-12-24T21:59:20.349Z,13.05
2023-12-24T22:01:32.118Z,13.05
2023-12-24T22:03:40.112Z,13.04
2023-12-24T22:05:45.123Z,13.03
2023-12-24T22:07:50.462Z,13.02
2023-12-24T22:09:55.247Z,13.01
2023-12-24T22:11:59.949Z,13.01
2023-12-24T22:14:04.613Z,13.00
2023-12-24T22:16:14.973Z,13.01
2023-12-24T22:18:19.912Z,13.02
2023-12-24T22:20:24.702Z,13.02
2023-12-24T22:22:29.407Z,13.07
2023-12-24T22:24:34.133Z,13.09
2023-12-24T22:26:38.814Z,13.12
2023-12-24T22:28:43.487Z,13.15
2023-12-24T22:30:48.212Z,13.17
2023-12-24T22:32:52.963Z,13.21
2023-12-24T22:34:58.562Z,13.24
2023-12-24T22:37:03.445Z,13.26
2023-12-24T22:39:08.689Z,13.29
2023-12-24T22:41:13.468Z,13.30
2023-12-24T22:43:18.933Z,13.34
2023-12-24T22:45:23.750Z,13.37
2023-12-24T22:47:28.499Z,13.40
2023-12-24T22:49:35.971Z,13.41
2023-12-24T22:51:40.639Z,13.44
2023-12-24T22:53:45.352Z,13.44
2023-12-24T22:55:50.179Z,13.45
2023-12-24T22:57:55.224Z,13.45
2023-12-24T23:00:00.149Z,13.47
2023-12-24T23:02:05.026Z,13.47
2023-12-24T23:04:09.675Z,13.48
2023-12-24T23:06:15.380Z,13.47
2023-12-24T23:08:20.127Z,13.47
2023-12-24T23:10:27.841Z,13.48
2023-12-24T23:12:32.583Z,13.47
2023-12-24T23:14:37.345Z,13.48
2023-12-24T23:16:41.968Z,13.49
2023-12-24T23:18:46.854Z,13.48
2023-12-24T23:20:51.585Z,13.50
2023-12-24T23:22:56.469Z,13.50
2023-12-24T23:25:03.538Z,13.50
2023-12-24T23:27:08.952Z,13.50
2023-12-24T23:29:13.634Z,13.50
2023-12-24T23:31:18.358Z,13.49
2023-12-24T23:33:23.166Z,13.50
2023-12-24T23:35:28.028Z,13.52
2023-12-24T23:37:32.755Z,13.54
2023-12-24T23:39:37.395Z,13.56
2023-12-24T23:41:42.070Z,13.56
2023-12-24T23:43:46.693Z,13.58
2023-12-24T23:45:51.332Z,13.57
2023-12-24T23:47:56.242Z,13.57
2023-12-24T23:50:01.044Z,13.57
2023-12-24T23:52:06.411Z,13.56
2023-12-24T23:54:11.033Z,13.56
2023-12-24T23:56:16.865Z,13.56
2023-12-24T23:58:21.573Z,13.55
